createdAt,value
2017-12-12T00:00:34.937Z,13.93
2017-12-12T00:03:04.718Z,12.53
2017-12-12T00:05:34.196Z,11.37
2017-12-12T00:08:03.391Z,13.90
2017-12-12T00:10:32.912Z,8.33
2017-12-12T00:13:02.132Z,11.97
2017-12-12T00:15:31.620Z,11.20
2017-12-12T00:18:01.899Z,11.27
2017-12-12T00:20:31.391Z,11.00
2017-12-12T00:23:00.856Z,10.53
2017-12-12T00:25:30.644Z,9.10
2017-12-12T00:28:00.887Z,9.37
2017-12-12T00:30:31.825Z,12.67
2017-12-12T00:33:02.056Z,8.30
2017-12-12T00:35:31.656Z,10.40
2017-12-12T00:38:01.153Z,11.13
2017-12-12T00:40:30.671Z,10.67
2017-12-12T00:42:59.901Z,11.00
2017-12-12T00:45:29.364Z,9.67
2017-12-12T00:47:58.873Z,11.07
2017-12-12T00:50:28.492Z,9.80
2017-12-12T00:52:57.961Z,10.30
2017-12-12T00:55:27.436Z,9.33
2017-12-12T00:57:57.263Z,10.20
2017-12-12T01:00:27.504Z,9.77
2017-12-12T01:02:56.738Z,9.50
2017-12-12T01:05:26.201Z,10.17
2017-12-12T01:07:55.701Z,9.10
2017-12-12T01:10:25.942Z,12.23
2017-12-12T01:12:55.420Z,9.73
2017-12-12T01:15:24.699Z,11.00
2017-12-12T01:17:54.311Z,12.17
2017-12-12T01:20:23.773Z,11.93
2017-12-12T01:22:53.266Z,11.57
2017-12-12T01:25:22.859Z,10.70
2017-12-12T01:27:52.343Z,10.97
2017-12-12T01:30:21.817Z,10.63
2017-12-12T01:32:52.501Z,14.93
2017-12-12T01:35:21.864Z,12.97
2017-12-12T01:37:52.128Z,11.10
2017-12-12T01:40:20.952Z,12.87
2017-12-12T01:42:49.501Z,13.97
2017-12-12T01:45:18.041Z,12.03
2017-12-12T01:47:47.228Z,9.87
2017-12-12T01:50:17.464Z,17.77
2017-12-12T01:52:46.310Z,11.33
2017-12-12T01:55:15.449Z,12.83
2017-12-12T01:57:44.289Z,14.70
2017-12-12T02:00:14.204Z,12.93
2017-12-12T02:02:44.218Z,15.03
2017-12-12T02:05:13.021Z,12.13
2017-12-12T02:07:42.649Z,17.33
2017-12-12T02:10:11.189Z,11.73
2017-12-12T02:12:40.037Z,16.70
2017-12-12T02:15:09.151Z,11.93
2017-12-12T02:17:37.960Z,14.43
2017-12-12T02:20:06.781Z,10.70
2017-12-12T02:22:35.441Z,15.07
2017-12-12T02:25:03.991Z,12.30
2017-12-12T02:27:32.528Z,11.63
2017-12-12T02:30:01.347Z,12.67
2017-12-12T02:32:29.877Z,9.90
2017-12-12T02:34:58.414Z,9.40
2017-12-12T02:37:27.364Z,12.87
2017-12-12T02:39:55.924Z,10.70
2017-12-12T02:42:24.474Z,11.37
2017-12-12T02:44:53.014Z,11.43
2017-12-12T02:47:21.842Z,14.13
2017-12-12T02:49:51.096Z,9.17
2017-12-12T02:52:19.988Z,11.50
2017-12-12T02:54:48.810Z,11.47
2017-12-12T02:57:17.353Z,9.80
2017-12-12T02:59:46.124Z,9.00
2017-12-12T03:02:14.994Z,13.97
2017-12-12T03:04:44.292Z,13.27
2017-12-12T03:07:13.913Z,11.20
2017-12-12T03:09:42.480Z,10.80
2017-12-12T03:12:11.017Z,10.30
2017-12-12T03:14:39.572Z,11.27
2017-12-12T03:17:08.115Z,12.23
2017-12-12T03:19:37.436Z,12.30
2017-12-12T03:22:06.145Z,17.30
2017-12-12T03:24:36.036Z,16.40
2017-12-12T03:27:04.650Z,14.73
2017-12-12T03:29:33.218Z,14.83
2017-12-12T03:32:02.032Z,13.43
2017-12-12T03:34:30.850Z,12.53
2017-12-12T03:37:00.382Z,12.73
2017-12-12T03:39:29.955Z,20.07
2017-12-12T03:41:59.264Z,16.23
2017-12-12T03:44:28.373Z,20.30
2017-12-12T03:46:57.962Z,14.43
2017-12-12T03:49:27.110Z,15.10
2017-12-12T03:51:56.037Z,11.53
2017-12-12T03:54:24.920Z,13.30
2017-12-12T03:56:53.789Z,16.63
2017-12-12T03:59:22.761Z,16.23
2017-12-12T04:01:51.912Z,17.63
2017-12-12T04:04:21.063Z,15.00
2017-12-12T04:06:50.316Z,14.67
2017-12-12T04:09:19.517Z,17.43
2017-12-12T04:11:48.399Z,17.10
2017-12-12T04:14:17.552Z,18.33
2017-12-12T04:16:47.033Z,17.03
2017-12-12T04:19:15.844Z,15.67
2017-12-12T04:21:45.089Z,20.07
2017-12-12T04:24:13.954Z,14.43
2017-12-12T04:26:43.115Z,22.50
2017-12-12T04:29:12.264Z,14.07
2017-12-12T04:31:41.840Z,13.57
2017-12-12T04:34:11.156Z,14.47
2017-12-12T04:36:40.464Z,16.60
2017-12-12T04:39:10.060Z,17.37
2017-12-12T04:41:38.602Z,16.70
2017-12-12T04:44:07.428Z,15.87
2017-12-12T04:46:36.583Z,11.97
2017-12-12T04:49:05.698Z,15.63
2017-12-12T04:51:34.627Z,15.80
2017-12-12T04:54:03.443Z,14.37
2017-12-12T04:56:32.263Z,14.93
2017-12-12T04:59:01.792Z,10.13
2017-12-12T05:01:32.040Z,16.80
2017-12-12T05:04:01.421Z,14.87
2017-12-12T05:06:31.332Z,14.47
2017-12-12T05:08:59.869Z,16.03
2017-12-12T05:11:28.703Z,12.10
2017-12-12T05:13:58.615Z,11.13
2017-12-12T05:16:28.215Z,15.63
2017-12-12T05:18:57.959Z,11.70
2017-12-12T05:21:27.715Z,13.83
2017-12-12T05:23:56.864Z,12.90
2017-12-12T05:26:25.825Z,10.53
2017-12-12T05:28:55.748Z,9.33
2017-12-12T05:31:25.235Z,15.00
2017-12-12T05:33:54.828Z,15.47
2017-12-12T05:36:24.176Z,13.63
2017-12-12T05:38:53.885Z,10.23
2017-12-12T05:41:22.436Z,12.63
2017-12-12T05:43:50.981Z,13.17
2017-12-12T05:46:19.908Z,10.83
2017-12-12T05:48:48.445Z,12.93
2017-12-12T05:51:17.256Z,11.00
2017-12-12T05:53:46.463Z,15.27
2017-12-12T05:56:15.002Z,17.93
2017-12-12T05:58:43.873Z,15.77
2017-12-12T06:01:13.236Z,17.60
2017-12-12T06:03:42.820Z,17.53
2017-12-12T06:06:11.658Z,16.90
2017-12-12T06:08:40.412Z,18.53
2017-12-12T06:11:10.008Z,18.03
2017-12-12T06:13:38.572Z,19.63
2017-12-12T06:16:07.596Z,20.57
2017-12-12T06:18:37.178Z,17.67
2017-12-12T06:21:06.005Z,16.60
2017-12-12T06:23:34.987Z,21.47
2017-12-12T06:26:03.800Z,20.57
2017-12-12T06:28:32.660Z,18.07
2017-12-12T06:31:01.631Z,19.07
2017-12-12T06:33:31.553Z,18.47
2017-12-12T06:36:01.480Z,19.40
2017-12-12T06:38:30.028Z,18.53
2017-12-12T06:40:58.852Z,22.30
2017-12-12T06:43:27.782Z,18.17
2017-12-12T06:45:57.704Z,15.47
2017-12-12T06:48:26.527Z,17.77
2017-12-12T06:50:57.153Z,19.50
2017-12-12T06:53:26.740Z,17.37
2017-12-12T06:55:55.385Z,14.93
2017-12-12T06:58:24.322Z,19.10
2017-12-12T07:00:53.124Z,22.63
2017-12-12T07:03:21.995Z,16.47
2017-12-12T07:05:50.829Z,18.43
2017-12-12T07:08:19.383Z,19.57
2017-12-12T07:10:48.968Z,19.17
2017-12-12T07:13:18.172Z,19.77
2017-12-12T07:15:47.763Z,21.73
2017-12-12T07:18:16.596Z,17.87
2017-12-12T07:20:46.400Z,17.90
2017-12-12T07:23:15.584Z,16.97
2017-12-12T07:25:45.849Z,21.23
2017-12-12T07:28:16.235Z,17.90
2017-12-12T07:30:45.836Z,19.47
2017-12-12T07:33:16.093Z,16.67
2017-12-12T07:35:45.589Z,21.47
2017-12-12T07:38:14.785Z,21.37
2017-12-12T07:40:44.714Z,24.57
2017-12-12T07:43:14.525Z,28.27
2017-12-12T07:45:43.985Z,22.40
2017-12-12T07:48:13.151Z,23.87
2017-12-12T07:50:42.876Z,24.17
2017-12-12T07:53:12.829Z,29.43
2017-12-12T07:55:41.998Z,25.40
2017-12-12T07:58:11.904Z,23.53
2017-12-12T08:00:42.183Z,29.17
2017-12-12T08:03:12.161Z,28.97
2017-12-12T08:05:41.332Z,24.10
2017-12-12T08:08:11.132Z,26.40
2017-12-12T08:10:41.061Z,32.13
2017-12-12T08:13:11.314Z,32.10
2017-12-12T08:15:40.480Z,37.80
2017-12-12T08:18:09.981Z,32.57
2017-12-12T08:20:39.924Z,33.53
2017-12-12T08:23:09.096Z,30.97
2017-12-12T08:25:38.248Z,37.87
2017-12-12T08:28:07.821Z,30.70
2017-12-12T08:30:36.668Z,33.97
2017-12-12T08:33:06.640Z,34.03
2017-12-12T08:35:35.837Z,38.80
2017-12-12T08:38:06.916Z,37.33
2017-12-12T08:40:37.184Z,27.80
2017-12-12T08:43:06.703Z,33.23
2017-12-12T08:45:38.029Z,30.87
2017-12-12T08:48:07.650Z,27.70
2017-12-12T08:50:36.884Z,25.57
2017-12-12T08:53:07.484Z,27.33
2017-12-12T08:55:36.981Z,21.93
2017-12-12T08:58:06.780Z,18.73
2017-12-12T09:00:36.652Z,17.07
2017-12-12T09:03:05.868Z,17.87
2017-12-12T09:05:35.349Z,20.07
2017-12-12T09:08:05.716Z,17.60
2017-12-12T09:10:35.206Z,16.33
2017-12-12T09:13:04.116Z,21.07
2017-12-12T09:15:33.973Z,17.40
2017-12-12T09:18:03.179Z,20.83
2017-12-12T09:20:32.765Z,20.60
2017-12-12T09:23:02.268Z,21.70
2017-12-12T09:25:31.156Z,19.93
2017-12-12T09:28:00.336Z,24.43
2017-12-12T09:30:30.044Z,22.90
2017-12-12T09:32:59.552Z,21.10
2017-12-12T09:35:29.377Z,20.47
2017-12-12T09:37:59.632Z,19.67
2017-12-12T09:40:29.122Z,22.87
2017-12-12T09:42:58.302Z,22.27
2017-12-12T09:45:28.556Z,24.87
2017-12-12T09:47:58.055Z,26.23
2017-12-12T09:50:27.204Z,29.47
2017-12-12T09:52:56.694Z,26.20
2017-12-12T09:55:26.292Z,30.33
2017-12-12T09:57:55.792Z,26.57
2017-12-12T10:00:24.948Z,28.67
2017-12-12T10:02:54.324Z,24.80
2017-12-12T10:05:24.045Z,25.73
2017-12-12T10:07:54.312Z,23.30
2017-12-12T10:10:24.230Z,23.17
2017-12-12T10:12:53.687Z,25.53
2017-12-12T10:15:22.530Z,28.20
2017-12-12T10:17:52.012Z,23.33
2017-12-12T10:20:21.168Z,25.13
2017-12-12T10:22:50.328Z,23.63
2017-12-12T10:25:19.603Z,22.87
2017-12-12T10:27:49.071Z,25.20
2017-12-12T10:30:17.910Z,23.63
2017-12-12T10:32:48.165Z,25.80
2017-12-12T10:35:18.088Z,19.93
2017-12-12T10:37:46.903Z,21.03
2017-12-12T10:40:15.552Z,19.43
2017-12-12T10:42:44.191Z,18.20
2017-12-12T10:45:13.000Z,16.50
2017-12-12T10:47:41.888Z,16.17
2017-12-12T10:50:10.452Z,15.47
2017-12-12T10:52:40.092Z,17.07
2017-12-12T10:55:10.034Z,15.37
2017-12-12T10:57:38.904Z,14.93
2017-12-12T11:00:08.404Z,12.90
2017-12-12T11:02:37.719Z,15.57
2017-12-12T11:05:07.212Z,15.47
2017-12-12T11:07:36.704Z,16.07
2017-12-12T11:10:06.312Z,12.47
2017-12-12T11:12:36.549Z,16.20
2017-12-12T11:15:06.073Z,16.17
2017-12-12T11:17:35.668Z,12.37
2017-12-12T11:20:05.149Z,14.03
2017-12-12T11:22:35.420Z,14.27
2017-12-12T11:25:04.974Z,12.97
2017-12-12T11:27:34.571Z,16.57
2017-12-12T11:30:03.604Z,13.63
2017-12-12T11:32:32.543Z,14.40
2017-12-12T11:35:02.200Z,16.83
2017-12-12T11:37:32.220Z,19.67
2017-12-12T11:40:01.434Z,19.63
2017-12-12T11:42:33.605Z,22.13
2017-12-12T11:45:03.104Z,24.83
2017-12-12T11:47:32.634Z,26.47
2017-12-12T11:50:01.480Z,27.73
2017-12-12T11:52:35.694Z,28.30
2017-12-12T11:55:04.859Z,24.77
2017-12-12T11:57:33.400Z,25.10
2017-12-12T12:00:03.642Z,29.83
2017-12-12T12:02:33.617Z,24.43
2017-12-12T12:05:02.162Z,28.00
2017-12-12T12:07:31.384Z,29.63
2017-12-12T12:10:00.372Z,25.77
2017-12-12T12:12:29.196Z,27.00
2017-12-12T12:14:58.041Z,30.30
2017-12-12T12:17:27.600Z,32.23
2017-12-12T12:19:57.972Z,28.80
2017-12-12T12:22:27.732Z,28.47
2017-12-12T12:24:56.284Z,28.43
2017-12-12T12:27:25.920Z,32.07
2017-12-12T12:29:55.660Z,30.23
2017-12-12T12:32:24.289Z,32.27
2017-12-12T12:34:52.823Z,32.10
2017-12-12T12:37:22.040Z,30.90
2017-12-12T12:39:51.684Z,34.40
2017-12-12T12:42:21.415Z,32.50
2017-12-12T12:44:51.682Z,33.23
2017-12-12T12:47:20.853Z,32.47
2017-12-12T12:49:49.397Z,39.03
2017-12-12T12:52:19.317Z,32.63
2017-12-12T12:54:49.342Z,32.50
2017-12-12T12:57:18.957Z,29.53
2017-12-12T12:59:48.450Z,29.00
2017-12-12T13:02:18.405Z,32.23
2017-12-12T13:04:47.874Z,33.50
2017-12-12T13:07:18.125Z,28.70
2017-12-12T13:09:47.655Z,27.90
2017-12-12T13:12:17.117Z,33.70
2017-12-12T13:14:46.602Z,31.10
2017-12-12T13:17:16.515Z,29.80
2017-12-12T13:19:45.676Z,27.57
2017-12-12T13:22:15.651Z,29.23
2017-12-12T13:24:45.132Z,29.57
2017-12-12T13:27:14.636Z,29.23
2017-12-12T13:29:44.290Z,30.67
2017-12-12T13:32:13.763Z,31.80
2017-12-12T13:34:42.917Z,29.20
2017-12-12T13:37:12.906Z,33.40
2017-12-12T13:39:42.388Z,37.60
2017-12-12T13:42:11.315Z,38.77
2017-12-12T13:44:41.096Z,43.53
2017-12-12T13:47:10.617Z,41.97
2017-12-12T13:49:40.096Z,42.40
2017-12-12T13:52:09.378Z,42.77
2017-12-12T13:54:38.865Z,46.93
2017-12-12T13:57:08.341Z,41.80
2017-12-12T13:59:38.872Z,43.33
2017-12-12T14:02:09.121Z,42.93
2017-12-12T14:04:38.614Z,38.73
2017-12-12T14:07:08.879Z,34.43
2017-12-12T14:09:39.182Z,38.50
2017-12-12T14:12:09.404Z,36.67
2017-12-12T14:14:39.065Z,35.87
2017-12-12T14:17:09.312Z,38.23
2017-12-12T14:19:38.800Z,37.27
2017-12-12T14:22:08.732Z,33.33
2017-12-12T14:24:37.937Z,31.90
2017-12-12T14:27:07.593Z,33.73
2017-12-12T14:29:37.116Z,26.50
2017-12-12T14:32:06.792Z,25.33
2017-12-12T14:34:36.281Z,37.60
2017-12-12T14:37:05.759Z,29.63
2017-12-12T14:39:35.529Z,31.03
2017-12-12T14:42:05.797Z,28.47
2017-12-12T14:44:35.301Z,27.17
2017-12-12T14:47:05.011Z,28.13
2017-12-12T14:49:34.215Z,32.87
2017-12-12T14:52:03.853Z,30.90
2017-12-12T14:54:33.348Z,30.30
2017-12-12T14:57:03.106Z,31.40
2017-12-12T14:59:33.722Z,29.63
2017-12-12T15:02:03.960Z,33.57
2017-12-12T15:04:33.820Z,38.10
2017-12-12T15:07:03.314Z,30.77
2017-12-12T15:09:32.873Z,33.93
2017-12-12T15:12:02.348Z,32.30
2017-12-12T15:14:32.614Z,31.30
2017-12-12T15:17:02.108Z,27.03
2017-12-12T15:19:32.349Z,34.40
2017-12-12T15:22:01.944Z,32.50
2017-12-12T15:24:31.475Z,33.37
2017-12-12T15:27:01.024Z,32.67
2017-12-12T15:29:30.556Z,32.90
2017-12-12T15:32:00.050Z,34.83
2017-12-12T15:34:29.512Z,34.33
2017-12-12T15:36:59.756Z,33.40
2017-12-12T15:39:29.100Z,35.50
2017-12-12T15:41:58.584Z,34.93
2017-12-12T15:44:28.866Z,38.73
2017-12-12T15:46:58.351Z,35.07
2017-12-12T15:49:28.164Z,42.67
2017-12-12T15:51:59.016Z,42.13
2017-12-12T15:54:28.940Z,40.77
2017-12-12T15:56:58.732Z,45.43
2017-12-12T15:59:28.984Z,44.53
2017-12-12T16:01:58.577Z,43.60
2017-12-12T16:04:28.805Z,46.90
2017-12-12T16:06:58.456Z,44.93
2017-12-12T16:09:27.947Z,45.60
2017-12-12T16:11:57.804Z,56.00
2017-12-12T16:14:28.069Z,50.23
2017-12-12T16:16:57.541Z,54.23
2017-12-12T16:19:28.356Z,51.83
2017-12-12T16:21:58.605Z,53.10
2017-12-12T16:24:28.095Z,56.23
2017-12-12T16:26:58.357Z,54.63
2017-12-12T16:29:27.863Z,49.60
2017-12-12T16:31:57.367Z,59.70
2017-12-12T16:34:26.854Z,58.77
2017-12-12T16:36:55.825Z,53.50
2017-12-12T16:39:24.739Z,58.37
2017-12-12T16:41:53.936Z,53.60
2017-12-12T16:44:23.796Z,56.80
2017-12-12T16:46:54.041Z,56.80
2017-12-12T16:49:23.529Z,65.07
2017-12-12T16:51:53.452Z,56.43
2017-12-12T16:54:22.936Z,54.50
2017-12-12T16:56:53.218Z,56.43
2017-12-12T16:59:22.368Z,56.27
2017-12-12T17:01:51.912Z,60.13
2017-12-12T17:04:21.564Z,60.17
2017-12-12T17:06:51.844Z,59.33
2017-12-12T17:09:21.321Z,51.77
2017-12-12T17:11:50.638Z,59.53
2017-12-12T17:14:20.101Z,55.10
2017-12-12T17:16:50.169Z,49.70
2017-12-12T17:19:20.016Z,51.00
2017-12-12T17:21:50.264Z,47.27
2017-12-12T17:24:19.757Z,44.50
2017-12-12T17:26:49.657Z,50.33
2017-12-12T17:29:19.952Z,49.97
2017-12-12T17:31:56.684Z,52.60
2017-12-12T17:34:26.935Z,54.77
2017-12-12T17:36:56.951Z,53.40
2017-12-12T17:39:26.431Z,53.27
2017-12-12T17:41:58.652Z,51.57
2017-12-12T17:44:28.911Z,51.80
2017-12-12T17:46:58.083Z,54.17
2017-12-12T17:49:28.340Z,52.13
2017-12-12T17:51:57.869Z,51.23
2017-12-12T17:54:27.393Z,58.20
2017-12-12T17:56:56.909Z,56.10
2017-12-12T17:59:51.427Z,56.67
2017-12-12T18:05:02.897Z,58.77
2017-12-12T18:07:33.160Z,55.37
2017-12-12T18:10:02.668Z,61.27
2017-12-12T18:12:32.176Z,56.00
2017-12-12T18:15:01.650Z,52.47
2017-12-12T18:17:31.538Z,59.00
2017-12-12T18:20:01.876Z,55.27
2017-12-12T18:22:31.380Z,51.27
2017-12-12T18:25:00.593Z,56.60
2017-12-12T18:27:30.082Z,51.20
2017-12-12T18:30:00.448Z,62.27
2017-12-12T18:32:29.944Z,57.20
2017-12-12T18:34:59.431Z,52.73
2017-12-12T18:37:31.636Z,58.77
2017-12-12T18:40:01.137Z,58.63
2017-12-12T18:42:30.629Z,54.17
2017-12-12T18:45:00.896Z,60.77
2017-12-12T18:47:30.534Z,65.10
2017-12-12T18:50:00.008Z,64.20
2017-12-12T18:52:29.495Z,58.20
2017-12-12T18:55:00.146Z,61.33
2017-12-12T18:57:29.657Z,65.37
2017-12-12T19:00:03.353Z,60.73
2017-12-12T19:02:33.334Z,62.70
2017-12-12T19:05:02.832Z,61.63
2017-12-12T19:07:32.640Z,58.50
2017-12-12T19:10:04.647Z,64.20
2017-12-12T19:12:34.262Z,56.47
2017-12-12T19:15:04.175Z,59.47
2017-12-12T19:17:34.280Z,60.70
2017-12-12T19:20:07.780Z,62.33
2017-12-12T19:22:38.024Z,57.47
2017-12-12T19:25:07.512Z,64.97
2017-12-12T19:27:37.237Z,56.23
2017-12-12T19:30:07.115Z,60.60
2017-12-12T19:32:36.618Z,63.57
2017-12-12T19:35:06.150Z,57.77
2017-12-12T19:37:37.162Z,54.47
2017-12-12T19:40:08.097Z,65.13
2017-12-12T19:42:37.683Z,61.77
2017-12-12T19:45:07.786Z,62.63
2017-12-12T19:47:37.597Z,55.77
2017-12-12T19:50:07.396Z,53.67
2017-12-12T19:52:37.203Z,58.47
2017-12-12T19:55:06.705Z,57.23
2017-12-12T19:57:36.189Z,57.03
2017-12-12T20:00:05.161Z,57.93
2017-12-12T20:02:34.743Z,54.60
2017-12-12T20:05:04.729Z,61.30
2017-12-12T20:07:34.705Z,52.10
2017-12-12T20:10:03.871Z,53.37
2017-12-12T20:12:34.904Z,55.90
2017-12-12T20:15:04.872Z,65.87
2017-12-12T20:17:39.799Z,59.20
2017-12-12T20:20:09.303Z,63.37
2017-12-12T20:22:39.164Z,55.47
2017-12-12T20:25:09.089Z,63.43
2017-12-12T20:27:38.265Z,63.20
2017-12-12T20:30:08.189Z,59.57
2017-12-12T20:32:38.612Z,59.70
2017-12-12T20:35:08.852Z,59.97
2017-12-12T20:37:38.371Z,56.87
2017-12-12T20:40:07.868Z,57.83
2017-12-12T20:42:37.024Z,50.83
2017-12-12T20:45:07.276Z,61.60
2017-12-12T20:47:37.056Z,55.37
2017-12-12T20:50:06.528Z,55.67
2017-12-12T20:52:36.289Z,57.80
2017-12-12T20:55:05.897Z,61.53
2017-12-12T20:57:35.389Z,61.63
2017-12-12T21:00:05.660Z,58.73
2017-12-12T21:02:35.637Z,62.33
2017-12-12T21:05:04.872Z,62.70
2017-12-12T21:07:36.132Z,62.73
2017-12-12T21:10:05.106Z,67.87
2017-12-12T21:12:34.587Z,68.53
2017-12-12T21:15:03.736Z,66.27
2017-12-12T21:17:33.272Z,72.27
2017-12-12T21:20:02.771Z,71.73
2017-12-12T21:22:32.255Z,75.83
2017-12-12T21:25:02.656Z,77.90
2017-12-12T21:27:32.165Z,76.07
2017-12-12T21:30:01.664Z,73.37
2017-12-12T21:32:31.168Z,77.00
2017-12-12T21:35:00.664Z,71.67
2017-12-12T21:37:30.208Z,72.13
2017-12-12T21:39:59.937Z,78.67
2017-12-12T21:42:29.471Z,73.47
2017-12-12T21:47:43.075Z,66.00
2017-12-12T21:50:12.577Z,72.17
2017-12-12T21:52:42.085Z,84.60
2017-12-12T21:55:12.830Z,79.73
2017-12-12T21:57:42.300Z,76.43
2017-12-12T22:00:12.566Z,85.03
2017-12-12T22:02:41.792Z,83.27
2017-12-12T22:05:11.296Z,93.00
2017-12-12T22:07:40.846Z,95.80
2017-12-12T22:10:11.346Z,89.23
2017-12-12T22:12:41.896Z,90.83
2017-12-12T22:15:11.376Z,90.10
2017-12-12T22:17:41.360Z,81.93
2017-12-12T22:20:10.873Z,84.97
2017-12-12T22:22:40.363Z,85.23
2017-12-12T22:25:09.837Z,84.73
2017-12-12T22:27:39.332Z,88.30
2017-12-12T22:30:08.833Z,82.13
2017-12-12T22:32:38.046Z,81.80
2017-12-12T22:35:07.756Z,70.97
2017-12-12T22:37:38.143Z,77.90
2017-12-12T22:40:08.409Z,73.83
2017-12-12T22:42:37.636Z,80.57
2017-12-12T22:45:07.145Z,75.03
2017-12-12T22:47:36.652Z,72.77
2017-12-12T22:50:06.923Z,73.47
2017-12-12T22:52:36.428Z,74.53
2017-12-12T22:55:05.928Z,65.43
2017-12-12T22:57:35.436Z,69.20
2017-12-12T23:00:04.548Z,68.37
2017-12-12T23:02:34.576Z,73.63
2017-12-12T23:05:04.116Z,68.63
2017-12-12T23:07:33.584Z,68.93
2017-12-12T23:10:03.103Z,61.93
2017-12-12T23:12:33.366Z,66.30
2017-12-12T23:15:02.861Z,59.67
2017-12-12T23:17:32.347Z,62.33
2017-12-12T23:20:01.873Z,62.60
2017-12-12T23:22:31.369Z,67.93
2017-12-12T23:25:00.868Z,65.57
2017-12-12T23:27:30.382Z,61.60
2017-12-12T23:29:59.888Z,69.10
2017-12-12T23:32:29.403Z,56.53
2017-12-12T23:34:59.173Z,61.63
2017-12-12T23:37:29.445Z,54.33
2017-12-12T23:39:59.318Z,54.87
2017-12-12T23:42:30.228Z,59.50
2017-12-12T23:45:00.492Z,55.57
2017-12-12T23:47:29.988Z,54.50
2017-12-12T23:50:00.036Z,55.87
2017-12-12T23:52:30.072Z,56.07
2017-12-12T23:54:59.576Z,63.83
2017-12-12T23:57:29.392Z,54.17
2017-12-12T23:59:58.884Z,53.83
